EDDN

Nuremberg Airport

Nuremberg, Germany
METAR EDDN 181520Z 36006KT 330V040 9999 FEW044 19/09 Q1019 NOSIG
Observed Flight Rules
Oct-18 @ 15:20 UTC (36 minutes ago) Visual Flight Rules
Wind Visibility Clouds
360° at 6 knots 10,000+ meters
  • Few at 4,400' AGL
Temperatures Readings
Current 19°C / 66°F
Dewpoint 9°C / 48°F
Humidity 52%
Altimeter 30.09" Hg
Pressure 1019 hPa
Elevation 312
METAR EDDN 181520Z 36006KT 330V040 9999 FEW044 19/09 Q1019 NOSIG
Observed Flight Rules
Oct-18 @ 15:20 UTC
(36 minutes ago)
VFR
Wind Visibility
360° at 6 knots 10,000+ meters
Clouds
  • Few at 4,400' AGL
Temperature Dewpoint
19°C / 66°F 9°C / 48°F
Humidity Altimeter Pressure
52% 30.09" Hg 1019 hPa